sensor_id;sensor_type;location;lat;lon;timestamp;P1;durP1;ratioP1;P2;durP2;ratioP2
48207;SDS011;33997;53.278;9.708;2023-09-12T00:01:06;25.23;;;17.60;;
48207;SDS011;33997;53.278;9.708;2023-09-12T00:03:32;23.50;;;17.10;;
48207;SDS011;33997;53.278;9.708;2023-09-12T00:05:59;29.40;;;18.67;;
48207;SDS011;33997;53.278;9.708;2023-09-12T00:08:25;23.88;;;18.00;;
48207;SDS011;33997;53.278;9.708;2023-09-12T00:11:01;30.80;;;19.10;;
48207;SDS011;33997;53.278;9.708;2023-09-12T00:13:31;33.67;;;21.00;;
48207;SDS011;33997;53.278;9.708;2023-09-12T00:15:57;26.35;;;19.73;;
48207;SDS011;33997;53.278;9.708;2023-09-12T00:18:23;32.58;;;23.05;;
48207;SDS011;33997;53.278;9.708;2023-09-12T00:20:49;36.55;;;22.25;;
48207;SDS011;33997;53.278;9.708;2023-09-12T00:23:15;42.08;;;25.25;;
48207;SDS011;33997;53.278;9.708;2023-09-12T00:25:41;40.13;;;23.88;;
48207;SDS011;33997;53.278;9.708;2023-09-12T00:28:06;44.83;;;24.63;;
48207;SDS011;33997;53.278;9.708;2023-09-12T00:30:32;44.13;;;26.25;;
48207;SDS011;33997;53.278;9.708;2023-09-12T00:32:57;42.60;;;27.10;;
48207;SDS011;33997;53.278;9.708;2023-09-12T00:35:23;45.65;;;26.38;;
48207;SDS011;33997;53.278;9.708;2023-09-12T00:37:48;45.92;;;26.70;;
48207;SDS011;33997;53.278;9.708;2023-09-12T00:40:14;49.95;;;26.67;;
48207;SDS011;33997;53.278;9.708;2023-09-12T00:42:39;45.28;;;27.08;;
48207;SDS011;33997;53.278;9.708;2023-09-12T00:45:06;43.10;;;27.00;;
48207;SDS011;33997;53.278;9.708;2023-09-12T00:47:31;49.33;;;28.58;;
48207;SDS011;33997;53.278;9.708;2023-09-12T00:49:57;44.63;;;26.80;;
48207;SDS011;33997;53.278;9.708;2023-09-12T00:52:24;45.63;;;28.30;;
48207;SDS011;33997;53.278;9.708;2023-09-12T00:54:51;46.67;;;26.92;;
48207;SDS011;33997;53.278;9.708;2023-09-12T00:57:17;46.72;;;27.77;;
48207;SDS011;33997;53.278;9.708;2023-09-12T00:59:43;45.10;;;26.58;;
48207;SDS011;33997;53.278;9.708;2023-09-12T01:02:09;43.05;;;25.42;;
48207;SDS011;33997;53.278;9.708;2023-09-12T01:04:35;48.95;;;26.33;;
48207;SDS011;33997;53.278;9.708;2023-09-12T01:07:04;41.00;;;25.52;;
48207;SDS011;33997;53.278;9.708;2023-09-12T01:09:30;48.42;;;26.40;;
48207;SDS011;33997;53.278;9.708;2023-09-12T01:11:57;44.47;;;26.73;;
48207;SDS011;33997;53.278;9.708;2023-09-12T01:14:23;42.95;;;26.30;;
48207;SDS011;33997;53.278;9.708;2023-09-12T01:16:48;46.05;;;23.98;;
48207;SDS011;33997;53.278;9.708;2023-09-12T01:19:14;39.10;;;24.75;;
48207;SDS011;33997;53.278;9.708;2023-09-12T01:24:48;40.25;;;23.63;;
48207;SDS011;33997;53.278;9.708;2023-09-12T01:27:30;47.60;;;25.57;;
48207;SDS011;33997;53.278;9.708;2023-09-12T01:30:03;47.15;;;27.15;;
48207;SDS011;33997;53.278;9.708;2023-09-12T01:32:31;47.35;;;26.83;;
48207;SDS011;33997;53.278;9.708;2023-09-12T01:34:58;50.00;;;27.73;;
48207;SDS011;33997;53.278;9.708;2023-09-12T01:37:24;45.72;;;27.52;;
48207;SDS011;33997;53.278;9.708;2023-09-12T01:39:49;48.05;;;28.75;;
48207;SDS011;33997;53.278;9.708;2023-09-12T01:42:16;51.05;;;27.52;;
48207;SDS011;33997;53.278;9.708;2023-09-12T01:44:44;45.60;;;27.95;;
48207;SDS011;33997;53.278;9.708;2023-09-12T01:47:10;53.03;;;29.55;;
48207;SDS011;33997;53.278;9.708;2023-09-12T01:49:39;58.75;;;29.48;;
48207;SDS011;33997;53.278;9.708;2023-09-12T01:52:07;53.50;;;28.92;;
48207;SDS011;33997;53.278;9.708;2023-09-12T01:54:33;52.90;;;28.42;;
48207;SDS011;33997;53.278;9.708;2023-09-12T01:57:01;52.30;;;30.02;;
48207;SDS011;33997;53.278;9.708;2023-09-12T01:59:28;55.25;;;29.83;;
48207;SDS011;33997;53.278;9.708;2023-09-12T02:01:54;52.80;;;29.23;;
48207;SDS011;33997;53.278;9.708;2023-09-12T02:04:19;57.28;;;31.45;;
48207;SDS011;33997;53.278;9.708;2023-09-12T02:06:45;55.90;;;30.50;;
48207;SDS011;33997;53.278;9.708;2023-09-12T02:09:10;58.70;;;30.30;;
48207;SDS011;33997;53.278;9.708;2023-09-12T02:11:36;50.25;;;31.48;;
48207;SDS011;33997;53.278;9.708;2023-09-12T02:14:01;55.00;;;30.83;;
48207;SDS011;33997;53.278;9.708;2023-09-12T02:16:27;51.72;;;29.90;;
48207;SDS011;33997;53.278;9.708;2023-09-12T02:18:54;55.90;;;30.98;;
48207;SDS011;33997;53.278;9.708;2023-09-12T02:21:19;50.25;;;31.00;;
48207;SDS011;33997;53.278;9.708;2023-09-12T02:23:45;56.83;;;32.00;;
48207;SDS011;33997;53.278;9.708;2023-09-12T02:26:10;53.95;;;29.92;;
48207;SDS011;33997;53.278;9.708;2023-09-12T02:28:36;59.72;;;31.63;;
48207;SDS011;33997;53.278;9.708;2023-09-12T02:31:01;52.70;;;30.95;;
48207;SDS011;33997;53.278;9.708;2023-09-12T02:33:27;60.70;;;33.13;;
48207;SDS011;33997;53.278;9.708;2023-09-12T02:35:52;59.55;;;32.17;;
48207;SDS011;33997;53.278;9.708;2023-09-12T02:38:18;59.88;;;32.47;;
48207;SDS011;33997;53.278;9.708;2023-09-12T02:40:43;59.72;;;31.33;;
48207;SDS011;33997;53.278;9.708;2023-09-12T02:43:09;57.33;;;32.13;;
48207;SDS011;33997;53.278;9.708;2023-09-12T02:45:34;55.03;;;31.15;;
48207;SDS011;33997;53.278;9.708;2023-09-12T02:48:00;52.58;;;31.25;;
48207;SDS011;33997;53.278;9.708;2023-09-12T02:50:26;57.97;;;32.03;;
48207;SDS011;33997;53.278;9.708;2023-09-12T02:52:51;57.75;;;31.95;;
48207;SDS011;33997;53.278;9.708;2023-09-12T02:55:16;54.55;;;31.40;;
48207;SDS011;33997;53.278;9.708;2023-09-12T02:57:42;56.80;;;31.80;;
48207;SDS011;33997;53.278;9.708;2023-09-12T03:00:08;61.80;;;31.95;;
48207;SDS011;33997;53.278;9.708;2023-09-12T03:02:34;53.75;;;31.13;;
48207;SDS011;33997;53.278;9.708;2023-09-12T03:05:00;60.92;;;32.63;;
48207;SDS011;33997;53.278;9.708;2023-09-12T03:07:26;59.50;;;33.13;;
48207;SDS011;33997;53.278;9.708;2023-09-12T03:09:52;58.35;;;32.03;;
48207;SDS011;33997;53.278;9.708;2023-09-12T03:12:17;56.17;;;32.80;;
48207;SDS011;33997;53.278;9.708;2023-09-12T03:14:43;57.25;;;31.40;;
48207;SDS011;33997;53.278;9.708;2023-09-12T03:17:08;61.85;;;33.60;;
48207;SDS011;33997;53.278;9.708;2023-09-12T03:19:34;57.08;;;31.88;;
48207;SDS011;33997;53.278;9.708;2023-09-12T03:21:59;58.35;;;32.28;;
48207;SDS011;33997;53.278;9.708;2023-09-12T03:24:24;63.90;;;33.05;;
48207;SDS011;33997;53.278;9.708;2023-09-12T03:26:50;60.95;;;30.65;;
48207;SDS011;33997;53.278;9.708;2023-09-12T03:29:16;62.05;;;32.95;;
48207;SDS011;33997;53.278;9.708;2023-09-12T03:31:42;65.47;;;32.70;;
48207;SDS011;33997;53.278;9.708;2023-09-12T03:34:08;62.55;;;32.08;;
48207;SDS011;33997;53.278;9.708;2023-09-12T03:36:33;59.97;;;32.05;;
48207;SDS011;33997;53.278;9.708;2023-09-12T03:38:59;64.47;;;32.35;;
48207;SDS011;33997;53.278;9.708;2023-09-12T03:41:24;60.75;;;30.95;;
48207;SDS011;33997;53.278;9.708;2023-09-12T03:43:53;65.40;;;31.63;;
48207;SDS011;33997;53.278;9.708;2023-09-12T03:46:19;56.83;;;30.92;;
48207;SDS011;33997;53.278;9.708;2023-09-12T03:48:45;63.33;;;31.80;;
48207;SDS011;33997;53.278;9.708;2023-09-12T03:51:11;64.72;;;31.83;;
48207;SDS011;33997;53.278;9.708;2023-09-12T03:53:36;58.25;;;31.05;;
48207;SDS011;33997;53.278;9.708;2023-09-12T03:56:02;61.50;;;31.25;;
48207;SDS011;33997;53.278;9.708;2023-09-12T03:58:27;63.45;;;32.08;;
48207;SDS011;33997;53.278;9.708;2023-09-12T04:00:53;71.18;;;33.55;;
48207;SDS011;33997;53.278;9.708;2023-09-12T04:03:18;62.90;;;31.50;;
48207;SDS011;33997;53.278;9.708;2023-09-12T04:05:46;65.72;;;32.08;;
48207;SDS011;33997;53.278;9.708;2023-09-12T04:08:12;59.38;;;32.25;;
48207;SDS011;33997;53.278;9.708;2023-09-12T04:10:37;59.83;;;31.35;;
48207;SDS011;33997;53.278;9.708;2023-09-12T04:13:03;68.82;;;33.35;;
48207;SDS011;33997;53.278;9.708;2023-09-12T04:15:28;70.85;;;33.53;;
48207;SDS011;33997;53.278;9.708;2023-09-12T04:17:54;69.60;;;33.47;;
48207;SDS011;33997;53.278;9.708;2023-09-12T04:20:19;71.63;;;32.65;;
48207;SDS011;33997;53.278;9.708;2023-09-12T04:22:45;70.97;;;33.90;;
48207;SDS011;33997;53.278;9.708;2023-09-12T04:25:10;74.57;;;33.97;;
48207;SDS011;33997;53.278;9.708;2023-09-12T04:27:36;77.90;;;34.97;;
48207;SDS011;33997;53.278;9.708;2023-09-12T04:30:02;73.28;;;33.97;;
48207;SDS011;33997;53.278;9.708;2023-09-12T04:32:28;67.30;;;32.95;;
48207;SDS011;33997;53.278;9.708;2023-09-12T04:34:55;72.40;;;33.58;;
48207;SDS011;33997;53.278;9.708;2023-09-12T04:37:20;77.45;;;34.60;;
48207;SDS011;33997;53.278;9.708;2023-09-12T04:39:46;74.05;;;34.15;;
48207;SDS011;33997;53.278;9.708;2023-09-12T04:42:11;76.63;;;33.25;;
48207;SDS011;33997;53.278;9.708;2023-09-12T04:44:38;77.40;;;35.25;;
48207;SDS011;33997;53.278;9.708;2023-09-12T04:47:04;68.35;;;32.88;;
48207;SDS011;33997;53.278;9.708;2023-09-12T04:49:30;72.57;;;32.50;;
48207;SDS011;33997;53.278;9.708;2023-09-12T04:51:55;74.05;;;33.50;;
48207;SDS011;33997;53.278;9.708;2023-09-12T04:54:21;75.55;;;33.28;;
48207;SDS011;33997;53.278;9.708;2023-09-12T04:56:46;72.70;;;32.40;;
48207;SDS011;33997;53.278;9.708;2023-09-12T04:59:12;67.25;;;32.85;;
48207;SDS011;33997;53.278;9.708;2023-09-12T05:01:37;80.35;;;35.38;;
48207;SDS011;33997;53.278;9.708;2023-09-12T05:04:03;82.70;;;34.92;;
48207;SDS011;33997;53.278;9.708;2023-09-12T05:06:29;76.00;;;34.72;;
48207;SDS011;33997;53.278;9.708;2023-09-12T05:08:54;75.57;;;34.28;;
48207;SDS011;33997;53.278;9.708;2023-09-12T05:11:21;77.03;;;32.67;;
48207;SDS011;33997;53.278;9.708;2023-09-12T05:13:48;82.28;;;33.67;;
48207;SDS011;33997;53.278;9.708;2023-09-12T05:16:14;74.40;;;32.00;;
48207;SDS011;33997;53.278;9.708;2023-09-12T05:18:39;75.50;;;32.90;;
48207;SDS011;33997;53.278;9.708;2023-09-12T05:21:05;77.32;;;33.35;;
48207;SDS011;33997;53.278;9.708;2023-09-12T05:23:30;83.18;;;34.88;;
48207;SDS011;33997;53.278;9.708;2023-09-12T05:25:56;77.88;;;34.17;;
48207;SDS011;33997;53.278;9.708;2023-09-12T05:28:21;83.72;;;33.83;;
48207;SDS011;33997;53.278;9.708;2023-09-12T05:30:47;80.47;;;33.92;;
48207;SDS011;33997;53.278;9.708;2023-09-12T05:33:12;77.18;;;33.58;;
48207;SDS011;33997;53.278;9.708;2023-09-12T05:35:38;67.35;;;32.17;;
48207;SDS011;33997;53.278;9.708;2023-09-12T05:38:03;83.07;;;35.63;;
48207;SDS011;33997;53.278;9.708;2023-09-12T05:40:29;82.82;;;33.63;;
48207;SDS011;33997;53.278;9.708;2023-09-12T05:42:54;78.30;;;32.95;;
48207;SDS011;33997;53.278;9.708;2023-09-12T05:45:20;77.88;;;33.97;;
48207;SDS011;33997;53.278;9.708;2023-09-12T05:47:45;78.00;;;33.72;;
48207;SDS011;33997;53.278;9.708;2023-09-12T05:50:11;76.40;;;31.55;;
48207;SDS011;33997;53.278;9.708;2023-09-12T05:52:36;84.50;;;32.72;;
48207;SDS011;33997;53.278;9.708;2023-09-12T05:55:02;85.30;;;33.92;;
48207;SDS011;33997;53.278;9.708;2023-09-12T05:57:29;85.05;;;34.65;;
48207;SDS011;33997;53.278;9.708;2023-09-12T05:59:58;86.85;;;34.00;;
48207;SDS011;33997;53.278;9.708;2023-09-12T06:02:24;83.15;;;32.75;;
48207;SDS011;33997;53.278;9.708;2023-09-12T06:04:50;79.53;;;33.95;;
48207;SDS011;33997;53.278;9.708;2023-09-12T06:07:16;76.50;;;33.90;;
48207;SDS011;33997;53.278;9.708;2023-09-12T06:09:41;80.50;;;33.28;;
48207;SDS011;33997;53.278;9.708;2023-09-12T06:12:07;79.90;;;34.28;;
48207;SDS011;33997;53.278;9.708;2023-09-12T06:14:32;101.72;;;32.70;;
48207;SDS011;33997;53.278;9.708;2023-09-12T06:16:58;80.97;;;34.33;;
48207;SDS011;33997;53.278;9.708;2023-09-12T06:19:23;90.13;;;35.20;;
48207;SDS011;33997;53.278;9.708;2023-09-12T06:21:49;93.50;;;32.72;;
48207;SDS011;33997;53.278;9.708;2023-09-12T06:26:42;105.22;;;34.40;;
48207;SDS011;33997;53.278;9.708;2023-09-12T06:29:07;79.85;;;32.90;;
48207;SDS011;33997;53.278;9.708;2023-09-12T06:31:33;84.47;;;32.67;;
48207;SDS011;33997;53.278;9.708;2023-09-12T06:34:00;105.93;;;32.38;;
48207;SDS011;33997;53.278;9.708;2023-09-12T06:36:26;76.70;;;33.03;;
48207;SDS011;33997;53.278;9.708;2023-09-12T06:38:54;73.60;;;29.88;;
48207;SDS011;33997;53.278;9.708;2023-09-12T06:41:20;62.03;;;28.77;;
48207;SDS011;33997;53.278;9.708;2023-09-12T06:43:46;58.22;;;28.70;;
48207;SDS011;33997;53.278;9.708;2023-09-12T06:46:11;96.10;;;28.58;;
48207;SDS011;33997;53.278;9.708;2023-09-12T06:48:37;84.45;;;27.88;;
48207;SDS011;33997;53.278;9.708;2023-09-12T06:51:06;96.70;;;27.42;;
48207;SDS011;33997;53.278;9.708;2023-09-12T06:53:33;62.53;;;27.13;;
48207;SDS011;33997;53.278;9.708;2023-09-12T06:55:58;65.90;;;24.90;;
48207;SDS011;33997;53.278;9.708;2023-09-12T06:58:33;58.80;;;27.27;;
48207;SDS011;33997;53.278;9.708;2023-09-12T07:01:02;80.65;;;25.13;;
48207;SDS011;33997;53.278;9.708;2023-09-12T07:03:29;99.55;;;27.92;;
48207;SDS011;33997;53.278;9.708;2023-09-12T07:05:55;67.20;;;25.95;;
48207;SDS011;33997;53.278;9.708;2023-09-12T07:08:21;52.75;;;25.88;;
48207;SDS011;33997;53.278;9.708;2023-09-12T07:10:46;48.25;;;25.17;;
48207;SDS011;33997;53.278;9.708;2023-09-12T07:13:12;55.15;;;26.45;;
48207;SDS011;33997;53.278;9.708;2023-09-12T07:15:37;59.45;;;27.52;;
48207;SDS011;33997;53.278;9.708;2023-09-12T07:18:03;67.60;;;28.80;;
48207;SDS011;33997;53.278;9.708;2023-09-12T07:20:30;52.63;;;25.80;;
48207;SDS011;33997;53.278;9.708;2023-09-12T07:22:55;63.60;;;26.05;;
48207;SDS011;33997;53.278;9.708;2023-09-12T07:25:21;49.33;;;25.38;;
48207;SDS011;33997;53.278;9.708;2023-09-12T07:27:48;54.70;;;27.98;;
48207;SDS011;33997;53.278;9.708;2023-09-12T07:30:14;53.08;;;26.42;;
48207;SDS011;33997;53.278;9.708;2023-09-12T07:32:40;54.72;;;25.00;;
48207;SDS011;33997;53.278;9.708;2023-09-12T07:35:06;48.47;;;24.67;;
48207;SDS011;33997;53.278;9.708;2023-09-12T07:37:32;53.38;;;25.13;;
48207;SDS011;33997;53.278;9.708;2023-09-12T07:39:57;50.55;;;23.67;;
48207;SDS011;33997;53.278;9.708;2023-09-12T07:42:23;44.92;;;23.33;;
48207;SDS011;33997;53.278;9.708;2023-09-12T07:44:49;45.60;;;21.52;;
48207;SDS011;33997;53.278;9.708;2023-09-12T07:47:15;38.92;;;21.73;;
48207;SDS011;33997;53.278;9.708;2023-09-12T07:49:40;36.15;;;21.13;;
48207;SDS011;33997;53.278;9.708;2023-09-12T07:52:06;44.38;;;22.10;;
48207;SDS011;33997;53.278;9.708;2023-09-12T07:54:32;31.35;;;20.52;;
48207;SDS011;33997;53.278;9.708;2023-09-12T07:56:57;39.38;;;23.02;;
48207;SDS011;33997;53.278;9.708;2023-09-12T07:59:23;33.08;;;20.90;;
48207;SDS011;33997;53.278;9.708;2023-09-12T08:01:48;30.52;;;19.73;;
48207;SDS011;33997;53.278;9.708;2023-09-12T08:04:14;31.73;;;20.02;;
48207;SDS011;33997;53.278;9.708;2023-09-12T08:06:39;27.20;;;19.10;;
48207;SDS011;33997;53.278;9.708;2023-09-12T08:09:06;28.95;;;19.48;;
48207;SDS011;33997;53.278;9.708;2023-09-12T08:11:31;27.05;;;19.13;;
48207;SDS011;33997;53.278;9.708;2023-09-12T08:13:57;27.95;;;20.08;;
48207;SDS011;33997;53.278;9.708;2023-09-12T08:16:22;28.00;;;18.95;;
48207;SDS011;33997;53.278;9.708;2023-09-12T08:18:48;29.38;;;19.15;;
48207;SDS011;33997;53.278;9.708;2023-09-12T08:21:13;27.33;;;19.55;;
48207;SDS011;33997;53.278;9.708;2023-09-12T08:23:39;28.05;;;18.95;;
48207;SDS011;33997;53.278;9.708;2023-09-12T08:26:04;28.38;;;18.67;;
48207;SDS011;33997;53.278;9.708;2023-09-12T08:28:30;27.55;;;18.98;;
48207;SDS011;33997;53.278;9.708;2023-09-12T08:30:55;29.92;;;18.15;;
48207;SDS011;33997;53.278;9.708;2023-09-12T08:33:21;24.83;;;18.20;;
48207;SDS011;33997;53.278;9.708;2023-09-12T08:35:47;25.63;;;17.42;;
48207;SDS011;33997;53.278;9.708;2023-09-12T08:38:14;32.15;;;17.80;;
48207;SDS011;33997;53.278;9.708;2023-09-12T08:40:39;26.50;;;17.90;;
48207;SDS011;33997;53.278;9.708;2023-09-12T08:43:05;27.98;;;18.10;;
48207;SDS011;33997;53.278;9.708;2023-09-12T08:45:31;23.67;;;16.27;;
48207;SDS011;33997;53.278;9.708;2023-09-12T08:47:58;25.65;;;16.70;;
48207;SDS011;33997;53.278;9.708;2023-09-12T08:50:25;22.75;;;16.42;;
48207;SDS011;33997;53.278;9.708;2023-09-12T08:52:55;22.90;;;17.30;;
48207;SDS011;33997;53.278;9.708;2023-09-12T08:55:21;22.77;;;16.02;;
48207;SDS011;33997;53.278;9.708;2023-09-12T08:57:47;23.98;;;16.23;;
48207;SDS011;33997;53.278;9.708;2023-09-12T09:00:15;28.38;;;17.90;;
48207;SDS011;33997;53.278;9.708;2023-09-12T09:02:41;23.15;;;16.27;;
48207;SDS011;33997;53.278;9.708;2023-09-12T09:05:08;24.33;;;16.50;;
48207;SDS011;33997;53.278;9.708;2023-09-12T09:07:35;21.67;;;15.52;;
48207;SDS011;33997;53.278;9.708;2023-09-12T09:10:03;20.40;;;15.43;;
48207;SDS011;33997;53.278;9.708;2023-09-12T09:12:33;23.52;;;14.63;;
48207;SDS011;33997;53.278;9.708;2023-09-12T09:17:54;21.63;;;14.57;;
48207;SDS011;33997;53.278;9.708;2023-09-12T09:20:23;22.27;;;14.75;;
48207;SDS011;33997;53.278;9.708;2023-09-12T09:23:00;20.23;;;13.80;;
48207;SDS011;33997;53.278;9.708;2023-09-12T09:25:34;19.98;;;14.68;;
48207;SDS011;33997;53.278;9.708;2023-09-12T09:28:15;23.15;;;15.57;;
48207;SDS011;33997;53.278;9.708;2023-09-12T09:30:45;21.33;;;14.85;;
48207;SDS011;33997;53.278;9.708;2023-09-12T09:33:12;19.52;;;14.38;;
48207;SDS011;33997;53.278;9.708;2023-09-12T09:35:41;18.92;;;13.93;;
48207;SDS011;33997;53.278;9.708;2023-09-12T09:38:07;18.80;;;15.02;;
48207;SDS011;33997;53.278;9.708;2023-09-12T09:40:33;20.10;;;14.65;;
48207;SDS011;33997;53.278;9.708;2023-09-12T09:42:59;19.52;;;13.68;;
48207;SDS011;33997;53.278;9.708;2023-09-12T09:45:27;18.70;;;14.88;;
48207;SDS011;33997;53.278;9.708;2023-09-12T09:47:56;19.90;;;14.05;;
48207;SDS011;33997;53.278;9.708;2023-09-12T09:50:23;19.75;;;13.98;;
48207;SDS011;33997;53.278;9.708;2023-09-12T09:52:55;19.38;;;14.15;;
48207;SDS011;33997;53.278;9.708;2023-09-12T09:55:22;20.63;;;14.68;;
48207;SDS011;33997;53.278;9.708;2023-09-12T09:57:48;20.80;;;14.82;;
48207;SDS011;33997;53.278;9.708;2023-09-12T10:00:17;20.38;;;14.52;;
48207;SDS011;33997;53.278;9.708;2023-09-12T10:02:43;20.48;;;13.68;;
48207;SDS011;33997;53.278;9.708;2023-09-12T10:05:10;20.13;;;13.75;;
48207;SDS011;33997;53.278;9.708;2023-09-12T10:07:37;21.63;;;14.63;;
48207;SDS011;33997;53.278;9.708;2023-09-12T10:10:05;18.65;;;14.07;;
48207;SDS011;33997;53.278;9.708;2023-09-12T10:12:31;15.50;;;12.38;;
48207;SDS011;33997;53.278;9.708;2023-09-12T10:15:00;16.40;;;12.60;;
48207;SDS011;33997;53.278;9.708;2023-09-12T10:17:28;16.02;;;11.80;;
48207;SDS011;33997;53.278;9.708;2023-09-12T10:20:02;14.85;;;11.95;;
48207;SDS011;33997;53.278;9.708;2023-09-12T10:22:43;15.07;;;10.45;;
48207;SDS011;33997;53.278;9.708;2023-09-12T10:25:20;13.30;;;10.32;;
48207;SDS011;33997;53.278;9.708;2023-09-12T10:27:46;15.55;;;10.73;;
48207;SDS011;33997;53.278;9.708;2023-09-12T10:30:14;14.43;;;10.77;;
48207;SDS011;33997;53.278;9.708;2023-09-12T10:32:40;14.60;;;10.45;;
48207;SDS011;33997;53.278;9.708;2023-09-12T10:35:10;13.93;;;10.02;;
48207;SDS011;33997;53.278;9.708;2023-09-12T10:37:35;12.23;;;9.45;;
48207;SDS011;33997;53.278;9.708;2023-09-12T10:40:05;12.98;;;9.18;;
48207;SDS011;33997;53.278;9.708;2023-09-12T10:42:33;13.73;;;8.88;;
48207;SDS011;33997;53.278;9.708;2023-09-12T10:45:00;11.40;;;9.38;;
48207;SDS011;33997;53.278;9.708;2023-09-12T10:47:27;11.45;;;8.70;;
48207;SDS011;33997;53.278;9.708;2023-09-12T10:49:53;10.20;;;8.00;;
48207;SDS011;33997;53.278;9.708;2023-09-12T10:52:27;12.45;;;9.10;;
48207;SDS011;33997;53.278;9.708;2023-09-12T10:54:53;11.48;;;8.27;;
48207;SDS011;33997;53.278;9.708;2023-09-12T10:57:19;13.07;;;8.63;;
48207;SDS011;33997;53.278;9.708;2023-09-12T11:04:59;12.40;;;9.55;;
48207;SDS011;33997;53.278;9.708;2023-09-12T11:12:41;16.95;;;10.27;;
48207;SDS011;33997;53.278;9.708;2023-09-12T11:15:08;14.38;;;10.02;;
48207;SDS011;33997;53.278;9.708;2023-09-12T11:17:42;15.88;;;9.88;;
48207;SDS011;33997;53.278;9.708;2023-09-12T11:20:12;15.95;;;10.68;;
48207;SDS011;33997;53.278;9.708;2023-09-12T11:22:40;14.20;;;10.90;;
48207;SDS011;33997;53.278;9.708;2023-09-12T11:25:28;15.07;;;10.02;;
48207;SDS011;33997;53.278;9.708;2023-09-12T11:30:19;15.95;;;11.82;;
48207;SDS011;33997;53.278;9.708;2023-09-12T11:32:46;18.60;;;11.02;;
48207;SDS011;33997;53.278;9.708;2023-09-12T11:35:14;15.15;;;10.50;;
48207;SDS011;33997;53.278;9.708;2023-09-12T11:37:40;14.82;;;11.15;;
48207;SDS011;33997;53.278;9.708;2023-09-12T11:42:39;17.05;;;10.90;;
48207;SDS011;33997;53.278;9.708;2023-09-12T11:45:07;15.43;;;11.00;;
48207;SDS011;33997;53.278;9.708;2023-09-12T11:47:34;15.60;;;10.73;;
48207;SDS011;33997;53.278;9.708;2023-09-12T11:49:59;15.95;;;9.98;;
48207;SDS011;33997;53.278;9.708;2023-09-12T11:52:24;14.98;;;10.70;;
48207;SDS011;33997;53.278;9.708;2023-09-12T11:54:50;14.35;;;10.05;;
48207;SDS011;33997;53.278;9.708;2023-09-12T11:57:15;16.52;;;11.88;;
48207;SDS011;33997;53.278;9.708;2023-09-12T11:59:43;14.75;;;11.02;;
48207;SDS011;33997;53.278;9.708;2023-09-12T12:02:16;14.65;;;10.88;;
48207;SDS011;33997;53.278;9.708;2023-09-12T12:04:43;14.70;;;10.35;;
48207;SDS011;33997;53.278;9.708;2023-09-12T12:07:09;12.88;;;10.00;;
48207;SDS011;33997;53.278;9.708;2023-09-12T12:09:35;12.07;;;9.13;;
48207;SDS011;33997;53.278;9.708;2023-09-12T12:12:08;13.90;;;9.95;;
48207;SDS011;33997;53.278;9.708;2023-09-12T12:14:34;10.88;;;9.52;;
48207;SDS011;33997;53.278;9.708;2023-09-12T12:17:09;10.95;;;8.05;;
48207;SDS011;33997;53.278;9.708;2023-09-12T12:19:36;12.48;;;9.10;;
48207;SDS011;33997;53.278;9.708;2023-09-12T12:22:03;11.25;;;9.00;;
48207;SDS011;33997;53.278;9.708;2023-09-12T12:24:36;13.07;;;8.38;;
48207;SDS011;33997;53.278;9.708;2023-09-12T12:27:03;14.05;;;8.77;;
48207;SDS011;33997;53.278;9.708;2023-09-12T12:29:29;11.77;;;8.35;;
48207;SDS011;33997;53.278;9.708;2023-09-12T12:31:59;12.80;;;8.82;;
48207;SDS011;33997;53.278;9.708;2023-09-12T12:34:26;10.55;;;9.27;;
48207;SDS011;33997;53.278;9.708;2023-09-12T12:36:53;10.70;;;8.40;;
48207;SDS011;33997;53.278;9.708;2023-09-12T12:39:20;12.35;;;9.15;;
48207;SDS011;33997;53.278;9.708;2023-09-12T12:41:46;10.98;;;8.57;;
48207;SDS011;33997;53.278;9.708;2023-09-12T12:44:11;13.57;;;9.15;;
48207;SDS011;33997;53.278;9.708;2023-09-12T12:46:54;11.77;;;9.27;;
48207;SDS011;33997;53.278;9.708;2023-09-12T12:49:20;11.25;;;8.45;;
48207;SDS011;33997;53.278;9.708;2023-09-12T12:51:46;12.88;;;8.77;;
48207;SDS011;33997;53.278;9.708;2023-09-12T12:54:12;13.68;;;9.73;;
48207;SDS011;33997;53.278;9.708;2023-09-12T12:56:38;14.60;;;10.48;;
48207;SDS011;33997;53.278;9.708;2023-09-12T12:59:04;12.98;;;10.15;;
48207;SDS011;33997;53.278;9.708;2023-09-12T13:01:33;12.55;;;9.38;;
48207;SDS011;33997;53.278;9.708;2023-09-12T13:04:00;12.32;;;8.95;;
48207;SDS011;33997;53.278;9.708;2023-09-12T13:06:25;12.77;;;9.40;;
48207;SDS011;33997;53.278;9.708;2023-09-12T13:08:52;11.85;;;9.27;;
48207;SDS011;33997;53.278;9.708;2023-09-12T13:11:18;11.00;;;8.55;;
48207;SDS011;33997;53.278;9.708;2023-09-12T13:13:45;12.38;;;9.40;;
48207;SDS011;33997;53.278;9.708;2023-09-12T13:16:14;11.52;;;8.60;;
48207;SDS011;33997;53.278;9.708;2023-09-12T13:18:40;11.50;;;8.35;;
48207;SDS011;33997;53.278;9.708;2023-09-12T13:21:05;10.82;;;8.02;;
48207;SDS011;33997;53.278;9.708;2023-09-12T13:23:33;10.18;;;7.50;;
48207;SDS011;33997;53.278;9.708;2023-09-12T13:26:00;9.10;;;6.72;;
48207;SDS011;33997;53.278;9.708;2023-09-12T13:28:26;10.50;;;7.88;;
48207;SDS011;33997;53.278;9.708;2023-09-12T13:30:54;10.15;;;7.70;;
48207;SDS011;33997;53.278;9.708;2023-09-12T13:33:20;10.82;;;8.38;;
48207;SDS011;33997;53.278;9.708;2023-09-12T13:35:49;8.35;;;6.47;;
48207;SDS011;33997;53.278;9.708;2023-09-12T13:38:15;10.23;;;6.90;;
48207;SDS011;33997;53.278;9.708;2023-09-12T13:40:42;8.50;;;6.60;;
48207;SDS011;33997;53.278;9.708;2023-09-12T13:43:09;10.43;;;7.35;;
48207;SDS011;33997;53.278;9.708;2023-09-12T13:45:35;8.20;;;6.53;;
48207;SDS011;33997;53.278;9.708;2023-09-12T13:48:01;10.38;;;7.45;;
48207;SDS011;33997;53.278;9.708;2023-09-12T13:50:28;10.57;;;7.53;;
48207;SDS011;33997;53.278;9.708;2023-09-12T13:52:54;10.75;;;7.68;;
48207;SDS011;33997;53.278;9.708;2023-09-12T13:55:21;10.20;;;6.75;;
48207;SDS011;33997;53.278;9.708;2023-09-12T13:57:47;11.57;;;7.97;;
48207;SDS011;33997;53.278;9.708;2023-09-12T14:00:12;12.10;;;7.68;;
48207;SDS011;33997;53.278;9.708;2023-09-12T14:02:38;10.68;;;7.00;;
48207;SDS011;33997;53.278;9.708;2023-09-12T14:05:04;10.98;;;6.95;;
48207;SDS011;33997;53.278;9.708;2023-09-12T14:07:29;9.93;;;6.65;;
48207;SDS011;33997;53.278;9.708;2023-09-12T14:09:55;8.82;;;6.05;;
48207;SDS011;33997;53.278;9.708;2023-09-12T14:12:22;8.57;;;6.03;;
48207;SDS011;33997;53.278;9.708;2023-09-12T14:14:48;10.23;;;7.30;;
48207;SDS011;33997;53.278;9.708;2023-09-12T14:17:14;8.52;;;6.10;;
48207;SDS011;33997;53.278;9.708;2023-09-12T14:19:39;10.05;;;6.68;;
48207;SDS011;33997;53.278;9.708;2023-09-12T14:22:05;8.43;;;6.63;;
48207;SDS011;33997;53.278;9.708;2023-09-12T14:24:30;10.65;;;6.70;;
48207;SDS011;33997;53.278;9.708;2023-09-12T14:26:56;9.25;;;6.30;;
48207;SDS011;33997;53.278;9.708;2023-09-12T14:29:21;11.18;;;6.50;;
48207;SDS011;33997;53.278;9.708;2023-09-12T14:31:48;9.50;;;6.00;;
48207;SDS011;33997;53.278;9.708;2023-09-12T14:34:15;8.70;;;6.55;;
48207;SDS011;33997;53.278;9.708;2023-09-12T14:36:41;8.48;;;5.95;;
48207;SDS011;33997;53.278;9.708;2023-09-12T14:39:07;7.25;;;5.18;;
48207;SDS011;33997;53.278;9.708;2023-09-12T14:41:32;11.15;;;5.72;;
48207;SDS011;33997;53.278;9.708;2023-09-12T14:43:58;9.82;;;5.68;;
48207;SDS011;33997;53.278;9.708;2023-09-12T14:46:23;7.55;;;5.22;;